createdAt,value
2018-08-17T00:00:21.244Z,55.41
2018-08-17T00:02:49.606Z,55.47
2018-08-17T00:05:18.943Z,55.52
2018-08-17T00:07:47.602Z,55.59
2018-08-17T00:10:16.504Z,55.55
2018-08-17T00:12:44.776Z,55.52
2018-08-17T00:15:13.334Z,55.64
2018-08-17T00:17:41.487Z,55.53
2018-08-17T00:20:10.907Z,55.71
2018-08-17T00:22:39.414Z,55.78
2018-08-17T00:25:07.652Z,55.74
2018-08-17T00:27:36.538Z,56.04
2018-08-17T00:30:05.705Z,56.38
2018-08-17T00:32:33.834Z,56.43
2018-08-17T00:35:02.908Z,56.60
2018-08-17T00:37:31.225Z,56.68
2018-08-17T00:39:59.658Z,57.08
2018-08-17T00:42:28.621Z,57.32
2018-08-17T00:44:57.144Z,57.25
2018-08-17T00:47:25.988Z,57.56
2018-08-17T00:49:54.798Z,57.72
2018-08-17T00:52:25.418Z,58.16
2018-08-17T00:54:54.066Z,58.27
2018-08-17T00:57:23.077Z,58.22
2018-08-17T00:59:51.510Z,58.54
2018-08-17T01:02:20.105Z,58.83
2018-08-17T01:04:48.970Z,59.37
2018-08-17T01:07:17.707Z,59.59
2018-08-17T01:09:46.685Z,59.92
2018-08-17T01:12:16.162Z,59.79
2018-08-17T01:14:44.554Z,60.16
2018-08-17T01:17:13.064Z,59.82
2018-08-17T01:19:41.767Z,59.63
2018-08-17T01:22:10.197Z,59.54
2018-08-17T01:24:38.470Z,59.70
2018-08-17T01:27:07.173Z,59.65
2018-08-17T01:29:35.561Z,59.79
2018-08-17T01:32:04.109Z,59.79
2018-08-17T01:34:32.691Z,59.75
2018-08-17T01:37:01.212Z,59.94
2018-08-17T01:39:29.844Z,60.12
2018-08-17T01:41:58.641Z,60.16
2018-08-17T01:44:27.352Z,60.12
2018-08-17T01:46:56.216Z,59.98
2018-08-17T01:49:24.980Z,59.89
2018-08-17T01:51:53.144Z,59.78
2018-08-17T01:54:21.571Z,59.85
2018-08-17T01:56:50.413Z,59.98
2018-08-17T01:59:18.476Z,60.14
2018-08-17T02:01:46.924Z,60.23
2018-08-17T02:04:15.572Z,60.27
2018-08-17T02:06:43.952Z,60.61
2018-08-17T02:09:12.517Z,60.85
2018-08-17T02:11:41.532Z,61.08
2018-08-17T02:14:09.885Z,61.22
2018-08-17T02:16:38.812Z,61.16
2018-08-17T02:19:06.976Z,61.21
2018-08-17T02:21:35.348Z,61.35
2018-08-17T02:24:03.869Z,61.34
2018-08-17T02:26:32.335Z,61.62
2018-08-17T02:29:00.470Z,61.84
2018-08-17T02:31:29.244Z,62.37
2018-08-17T02:33:57.895Z,62.68
2018-08-17T02:36:25.920Z,62.64
2018-08-17T02:38:54.319Z,62.96
2018-08-17T02:41:22.769Z,63.42
2018-08-17T02:43:50.816Z,63.33
2018-08-17T02:46:19.924Z,63.43
2018-08-17T02:48:48.273Z,63.49
2018-08-17T02:51:16.501Z,63.54
2018-08-17T02:53:44.891Z,63.77
2018-08-17T02:56:13.296Z,64.17
2018-08-17T02:58:43.501Z,64.19
2018-08-17T03:01:13.333Z,64.39
2018-08-17T03:03:43.414Z,64.65
2018-08-17T03:06:12.928Z,64.99
2018-08-17T03:08:41.184Z,64.97
2018-08-17T03:11:09.373Z,65.44
2018-08-17T03:13:37.804Z,65.36
2018-08-17T03:16:06.961Z,65.19
2018-08-17T03:18:35.481Z,65.25
2018-08-17T03:21:03.606Z,65.43
2018-08-17T03:23:32.063Z,65.61
2018-08-17T03:26:00.960Z,65.97
2018-08-17T03:28:29.287Z,66.06
2018-08-17T03:30:57.641Z,66.21
2018-08-17T03:33:25.940Z,66.38
2018-08-17T03:35:54.355Z,66.50
2018-08-17T03:38:22.776Z,66.33
2018-08-17T03:40:51.430Z,66.64
2018-08-17T03:43:19.902Z,66.74
2018-08-17T03:45:54.779Z,66.87
2018-08-17T03:48:23.108Z,67.34
2018-08-17T03:50:51.632Z,67.80
2018-08-17T03:53:20.180Z,67.63
2018-08-17T03:55:48.994Z,68.45
2018-08-17T03:58:17.455Z,69.11
2018-08-17T04:00:45.982Z,69.19
2018-08-17T04:03:14.851Z,69.17
2018-08-17T04:05:43.286Z,68.79
2018-08-17T04:08:11.752Z,68.62
2018-08-17T04:10:43.621Z,69.06
2018-08-17T04:13:14.161Z,68.94
2018-08-17T04:15:42.655Z,68.75
2018-08-17T04:18:12.155Z,68.78
2018-08-17T04:20:40.728Z,69.17
2018-08-17T04:23:09.204Z,69.28
2018-08-17T04:25:37.595Z,69.60
2018-08-17T04:28:09.078Z,69.60
2018-08-17T04:30:37.794Z,69.72
2018-08-17T04:33:07.205Z,70.11
2018-08-17T04:35:35.421Z,70.04
2018-08-17T04:38:07.632Z,69.80
2018-08-17T04:40:37.709Z,69.95
2018-08-17T04:43:11.602Z,69.77
2018-08-17T04:45:53.076Z,70.14
2018-08-17T04:48:22.623Z,70.10
2018-08-17T04:50:51.300Z,70.51
2018-08-17T04:53:23.343Z,71.19
2018-08-17T04:55:58.138Z,71.28
2018-08-17T04:58:33.200Z,71.34
2018-08-17T05:01:06.497Z,70.98
2018-08-17T05:03:34.945Z,71.36
2018-08-17T05:06:03.374Z,71.11
2018-08-17T05:08:33.064Z,71.02
2018-08-17T05:11:01.096Z,70.66
2018-08-17T05:13:29.536Z,70.52
2018-08-17T05:15:57.845Z,70.46
2018-08-17T05:18:26.250Z,70.11
2018-08-17T05:20:54.604Z,69.72
2018-08-17T05:23:23.457Z,69.15
2018-08-17T05:25:52.401Z,69.05
2018-08-17T05:28:21.174Z,68.75
2018-08-17T05:30:51.710Z,68.82
2018-08-17T05:33:24.171Z,68.59
2018-08-17T05:35:53.174Z,68.25
2018-08-17T05:38:21.586Z,67.84
2018-08-17T05:40:50.863Z,67.67
2018-08-17T05:43:22.034Z,67.32
2018-08-17T05:45:53.450Z,67.12
2018-08-17T05:48:24.779Z,66.61
2018-08-17T05:50:53.753Z,66.56
2018-08-17T05:53:23.051Z,66.20
2018-08-17T05:55:52.014Z,65.89
2018-08-17T05:58:24.419Z,65.62
2018-08-17T06:00:52.753Z,65.36
2018-08-17T06:03:23.160Z,64.92
2018-08-17T06:05:52.818Z,64.67
2018-08-17T06:08:22.791Z,64.12
2018-08-17T06:10:51.212Z,63.42
2018-08-17T06:13:22.508Z,62.25
2018-08-17T06:15:50.782Z,61.52
2018-08-17T06:18:22.985Z,60.65
2018-08-17T06:20:51.241Z,60.33
2018-08-17T06:23:19.488Z,59.83
2018-08-17T06:25:53.606Z,59.20
2018-08-17T06:28:37.906Z,59.00
2018-08-17T06:31:06.682Z,59.29
2018-08-17T06:33:36.817Z,59.15
2018-08-17T06:36:09.626Z,58.80
2018-08-17T06:38:38.271Z,58.42
2018-08-17T06:41:07.671Z,58.17
2018-08-17T06:43:38.738Z,57.60
2018-08-17T06:46:13.074Z,57.20
2018-08-17T06:48:43.362Z,57.20
2018-08-17T06:51:11.681Z,56.48
2018-08-17T06:53:41.045Z,55.79
2018-08-17T06:56:09.134Z,56.20
2018-08-17T06:58:37.472Z,56.17
2018-08-17T07:01:11.149Z,55.78
2018-08-17T07:03:40.892Z,56.16
2018-08-17T07:06:09.540Z,56.35
2018-08-17T07:08:39.058Z,56.67
2018-08-17T07:11:08.370Z,56.46
2018-08-17T07:13:36.910Z,56.74
2018-08-17T07:16:05.854Z,56.32
2018-08-17T07:18:34.249Z,56.30
2018-08-17T07:21:03.359Z,55.67
2018-08-17T07:23:31.997Z,54.98
2018-08-17T07:26:00.269Z,54.38
2018-08-17T07:28:28.762Z,52.84
2018-08-17T07:31:00.252Z,52.12
2018-08-17T07:33:29.627Z,51.71
2018-08-17T07:35:58.441Z,51.41
2018-08-17T07:38:26.729Z,51.52
2018-08-17T07:40:56.940Z,50.40
2018-08-17T07:43:25.478Z,49.74
2018-08-17T07:45:54.584Z,49.46
2018-08-17T07:48:23.202Z,48.21
2018-08-17T07:50:53.058Z,48.66
2018-08-17T07:53:22.713Z,48.00
2018-08-17T07:55:50.896Z,46.73
2018-08-17T07:58:19.790Z,46.58
2018-08-17T08:00:48.708Z,45.97
2018-08-17T08:03:21.060Z,44.12
2018-08-17T08:05:49.114Z,43.91
2018-08-17T08:08:17.784Z,42.67
2018-08-17T08:10:53.330Z,42.39
2018-08-17T08:13:21.657Z,42.71
2018-08-17T08:15:50.407Z,41.80
2018-08-17T08:18:19.872Z,41.50
2018-08-17T08:20:50.347Z,41.61
2018-08-17T08:23:24.102Z,41.96
2018-08-17T08:25:56.392Z,41.39
2018-08-17T08:28:26.340Z,41.27
2018-08-17T08:30:55.596Z,41.24
2018-08-17T08:33:28.470Z,40.72
2018-08-17T08:35:58.783Z,40.24
2018-08-17T08:38:30.757Z,39.89
2018-08-17T08:41:03.664Z,40.47
2018-08-17T08:43:33.351Z,39.10
2018-08-17T08:46:02.222Z,38.85
2018-08-17T08:48:36.604Z,39.16
2018-08-17T08:51:05.164Z,38.90
2018-08-17T08:53:37.151Z,38.77
2018-08-17T08:56:07.094Z,38.27
2018-08-17T08:58:40.578Z,38.49
2018-08-17T09:01:13.845Z,38.63
2018-08-17T09:06:33.217Z,37.79
2018-08-17T09:09:09.881Z,38.23
2018-08-17T09:14:15.871Z,37.87
2018-08-17T09:16:49.233Z,37.75
2018-08-17T09:19:22.109Z,37.13
2018-08-17T09:21:52.271Z,37.14
2018-08-17T09:24:20.541Z,37.14
2018-08-17T09:26:50.319Z,37.07
2018-08-17T09:29:19.006Z,36.73
2018-08-17T09:31:51.463Z,36.81
2018-08-17T09:34:21.050Z,36.63
2018-08-17T09:36:50.192Z,36.82
2018-08-17T09:39:18.517Z,36.88
2018-08-17T09:41:49.803Z,36.70
2018-08-17T09:44:18.367Z,37.40
2018-08-17T09:46:46.673Z,36.78
2018-08-17T09:49:19.115Z,37.15
2018-08-17T09:51:48.221Z,37.49
2018-08-17T09:54:21.917Z,36.83
2018-08-17T09:56:55.808Z,36.47
2018-08-17T09:59:24.623Z,37.25
2018-08-17T10:02:03.833Z,37.32
2018-08-17T10:04:38.146Z,37.23
2018-08-17T10:07:11.935Z,36.52
2018-08-17T10:09:45.958Z,35.69
2018-08-17T10:12:14.137Z,36.13
2018-08-17T10:14:42.395Z,35.41
2018-08-17T10:17:14.944Z,35.82
2018-08-17T10:19:43.651Z,34.87
2018-08-17T10:22:12.197Z,35.17
2018-08-17T10:24:40.668Z,35.11
2018-08-17T10:27:09.004Z,35.77
2018-08-17T10:29:39.056Z,35.50
2018-08-17T10:32:07.715Z,35.62
2018-08-17T10:34:35.840Z,35.41
2018-08-17T10:37:04.205Z,34.83
2018-08-17T10:39:32.641Z,34.54
2018-08-17T10:42:00.739Z,34.71
2018-08-17T10:44:28.981Z,34.53
2018-08-17T10:46:57.549Z,34.17
2018-08-17T10:49:25.731Z,34.06
2018-08-17T10:51:56.488Z,34.73
2018-08-17T10:54:25.451Z,34.55
2018-08-17T10:56:53.557Z,34.82
2018-08-17T10:59:21.738Z,34.26
2018-08-17T11:01:50.427Z,34.26
2018-08-17T11:04:18.512Z,33.80
2018-08-17T11:06:46.624Z,33.55
2018-08-17T11:09:15.417Z,34.10
2018-08-17T11:11:43.688Z,34.00
2018-08-17T11:14:11.867Z,32.43
2018-08-17T11:16:40.580Z,32.04
2018-08-17T11:19:09.376Z,32.23
2018-08-17T11:21:41.462Z,31.63
2018-08-17T11:24:10.131Z,31.32
2018-08-17T11:26:38.579Z,31.62
2018-08-17T11:29:06.647Z,30.63
2018-08-17T11:31:35.794Z,31.10
2018-08-17T11:34:04.801Z,31.36
2018-08-17T11:36:33.268Z,31.38
2018-08-17T11:39:01.378Z,31.77
2018-08-17T11:41:31.605Z,31.59
2018-08-17T11:44:03.348Z,31.78
2018-08-17T11:46:32.277Z,31.00
2018-08-17T11:49:00.524Z,31.25
2018-08-17T11:51:29.576Z,31.29
2018-08-17T11:53:58.278Z,31.49
2018-08-17T11:56:26.896Z,31.68
2018-08-17T11:58:55.665Z,31.40
2018-08-17T12:01:27.149Z,31.76
2018-08-17T12:03:55.443Z,31.91
2018-08-17T12:06:24.020Z,32.74
2018-08-17T12:08:52.264Z,33.15
2018-08-17T12:11:20.504Z,32.86
2018-08-17T12:13:49.017Z,31.84
2018-08-17T12:16:17.105Z,31.37
2018-08-17T12:18:45.437Z,31.23
2018-08-17T12:21:14.092Z,31.31
2018-08-17T12:23:42.483Z,31.17
2018-08-17T12:26:10.829Z,30.78
2018-08-17T12:28:39.404Z,30.82
2018-08-17T12:31:07.699Z,31.73
2018-08-17T12:33:35.870Z,32.05
2018-08-17T12:36:04.308Z,31.85
2018-08-17T12:38:33.123Z,31.49
2018-08-17T12:41:01.333Z,30.73
2018-08-17T12:43:32.445Z,31.33
2018-08-17T12:46:01.271Z,31.49
2018-08-17T12:48:29.934Z,31.50
2018-08-17T12:51:03.758Z,31.82
2018-08-17T12:53:33.177Z,31.58
2018-08-17T12:56:01.464Z,31.19
2018-08-17T12:58:30.418Z,30.77
2018-08-17T13:01:00.186Z,30.17
2018-08-17T13:03:29.654Z,29.95
2018-08-17T13:05:58.043Z,30.00
2018-08-17T13:08:26.400Z,29.79
2018-08-17T13:10:59.515Z,30.50
2018-08-17T13:13:28.281Z,30.20
2018-08-17T13:16:03.887Z,30.04
2018-08-17T13:18:35.328Z,29.42
2018-08-17T13:21:05.937Z,29.30
2018-08-17T13:23:35.645Z,29.57
2018-08-17T13:26:12.562Z,28.85
2018-08-17T13:28:42.064Z,29.09
2018-08-17T13:31:10.906Z,28.64
2018-08-17T13:33:42.124Z,28.95
2018-08-17T13:36:19.868Z,28.86
2018-08-17T13:38:55.697Z,29.07
2018-08-17T13:41:28.038Z,28.90
2018-08-17T13:43:59.159Z,28.46
2018-08-17T13:46:29.387Z,28.72
2018-08-17T13:49:02.732Z,28.95
2018-08-17T13:51:32.217Z,28.57
2018-08-17T13:54:07.338Z,28.66
2018-08-17T13:56:39.845Z,29.29
2018-08-17T13:59:09.284Z,29.52
2018-08-17T14:01:45.642Z,29.64
2018-08-17T14:04:17.911Z,30.12
2018-08-17T14:06:47.603Z,30.29
2018-08-17T14:09:17.589Z,30.13
2018-08-17T14:11:48.225Z,29.86
2018-08-17T14:14:26.434Z,30.01
2018-08-17T14:17:00.048Z,30.16
2018-08-17T14:19:30.735Z,30.08
2018-08-17T14:22:02.412Z,30.33
2018-08-17T14:24:34.664Z,30.18
2018-08-17T14:27:03.974Z,30.60
2018-08-17T14:29:33.999Z,30.59
2018-08-17T14:32:02.483Z,30.56
2018-08-17T14:34:32.761Z,30.75
2018-08-17T14:37:03.592Z,30.83
2018-08-17T14:39:34.313Z,30.86
2018-08-17T14:42:06.635Z,31.32
2018-08-17T14:44:40.059Z,31.61
2018-08-17T14:47:14.616Z,31.97
2018-08-17T14:49:45.607Z,32.29
2018-08-17T14:52:15.735Z,32.35
2018-08-17T14:54:44.605Z,32.80
2018-08-17T14:57:14.522Z,32.50
2018-08-17T14:59:45.064Z,32.72
2018-08-17T15:02:15.050Z,32.89
2018-08-17T15:04:44.267Z,32.61
2018-08-17T15:07:12.985Z,32.84
2018-08-17T15:09:41.139Z,32.66
2018-08-17T15:12:09.848Z,32.42
2018-08-17T15:14:38.854Z,32.24
2018-08-17T15:17:07.444Z,32.38
2018-08-17T15:19:37.416Z,32.84
2018-08-17T15:22:05.743Z,33.00
2018-08-17T15:24:41.843Z,32.81
2018-08-17T15:27:13.330Z,33.28
2018-08-17T15:29:46.789Z,33.66
2018-08-17T15:32:15.637Z,33.91
2018-08-17T15:34:45.160Z,34.21
2018-08-17T15:37:14.568Z,33.98
2018-08-17T15:39:43.609Z,34.03
2018-08-17T15:42:13.414Z,34.01
2018-08-17T15:44:45.197Z,34.37
2018-08-17T15:47:16.555Z,34.53
2018-08-17T15:50:00.962Z,34.65
2018-08-17T15:52:29.746Z,34.74
2018-08-17T15:54:59.711Z,34.59
2018-08-17T15:57:27.921Z,34.64
2018-08-17T15:59:56.275Z,35.23
2018-08-17T16:02:25.941Z,34.42
2018-08-17T16:04:54.511Z,34.64
2018-08-17T16:07:24.087Z,35.11
2018-08-17T16:09:53.447Z,35.11
2018-08-17T16:12:22.108Z,35.21
2018-08-17T16:14:55.766Z,34.83
2018-08-17T16:17:24.060Z,34.79
2018-08-17T16:19:54.518Z,35.77
2018-08-17T16:22:25.082Z,36.43
2018-08-17T16:24:55.854Z,37.79
2018-08-17T16:27:24.746Z,38.08
2018-08-17T16:29:53.467Z,39.09
2018-08-17T16:32:22.225Z,39.59
2018-08-17T16:34:50.420Z,40.21
2018-08-17T16:37:19.617Z,40.65
2018-08-17T16:39:55.903Z,41.34
2018-08-17T16:42:30.872Z,41.53
2018-08-17T16:47:36.983Z,42.24
2018-08-17T16:50:06.808Z,42.74
2018-08-17T16:52:35.790Z,42.84
2018-08-17T16:55:04.631Z,43.29
2018-08-17T16:57:33.087Z,43.87
2018-08-17T17:00:04.655Z,44.25
2018-08-17T17:02:37.627Z,44.57
2018-08-17T17:05:08.396Z,44.86
2018-08-17T17:07:36.884Z,45.30
2018-08-17T17:10:08.146Z,45.69
2018-08-17T17:12:36.947Z,45.99
2018-08-17T17:15:12.829Z,46.15
2018-08-17T17:17:41.423Z,46.43
2018-08-17T17:20:10.900Z,46.61
2018-08-17T17:22:39.295Z,46.83
2018-08-17T17:25:13.762Z,46.86
2018-08-17T17:27:45.701Z,47.21
2018-08-17T17:30:16.398Z,47.05
2018-08-17T17:32:44.829Z,47.73
2018-08-17T17:35:13.106Z,47.69
2018-08-17T17:37:45.343Z,47.84
2018-08-17T17:40:14.271Z,48.08
2018-08-17T17:42:42.651Z,48.56
2018-08-17T17:45:11.261Z,48.73
2018-08-17T17:47:39.655Z,48.72
2018-08-17T17:50:08.166Z,48.54
2018-08-17T17:52:36.450Z,48.39
2018-08-17T17:55:05.428Z,48.07
2018-08-17T17:57:38.139Z,47.85
2018-08-17T18:00:07.860Z,48.57
2018-08-17T18:02:37.124Z,49.13
2018-08-17T18:05:16.014Z,49.70
2018-08-17T18:07:47.477Z,50.11
2018-08-17T18:10:20.437Z,50.72
2018-08-17T18:12:49.467Z,51.76
2018-08-17T18:15:18.688Z,52.75
2018-08-17T18:17:47.828Z,54.29
2018-08-17T18:20:18.991Z,56.02
2018-08-17T18:22:47.728Z,58.06
2018-08-17T18:25:19.868Z,59.85
2018-08-17T18:27:49.522Z,60.99
2018-08-17T18:30:20.461Z,61.26
2018-08-17T18:32:49.324Z,61.84
2018-08-17T18:35:24.219Z,62.36
2018-08-17T18:37:53.686Z,62.13
2018-08-17T18:40:22.251Z,62.42
2018-08-17T18:42:56.292Z,62.07
2018-08-17T18:45:26.448Z,61.95
2018-08-17T18:47:55.790Z,61.98
2018-08-17T18:50:24.716Z,62.17
2018-08-17T18:52:54.213Z,62.38
2018-08-17T18:55:22.986Z,62.30
2018-08-17T18:57:51.255Z,62.38
2018-08-17T19:00:19.641Z,62.00
2018-08-17T19:02:48.160Z,62.12
2018-08-17T19:05:16.909Z,62.36
2018-08-17T19:07:45.895Z,62.57
2018-08-17T19:10:14.271Z,62.59
2018-08-17T19:12:42.352Z,61.92
2018-08-17T19:15:12.351Z,61.06
2018-08-17T19:17:40.860Z,60.93
2018-08-17T19:20:11.204Z,60.47
2018-08-17T19:22:41.378Z,60.91
2018-08-17T19:25:11.196Z,61.40
2018-08-17T19:27:40.076Z,62.15
2018-08-17T19:30:18.967Z,62.47
2018-08-17T19:32:47.759Z,63.26
2018-08-17T19:35:16.573Z,63.43
2018-08-17T19:37:45.558Z,63.47
2018-08-17T19:40:13.646Z,64.28
2018-08-17T19:42:46.698Z,65.08
2018-08-17T19:45:14.784Z,66.50
2018-08-17T19:47:43.093Z,66.19
2018-08-17T19:50:12.491Z,67.33
2018-08-17T19:52:40.779Z,67.58
2018-08-17T19:55:10.912Z,67.36
2018-08-17T19:57:40.648Z,67.70
2018-08-17T20:00:11.665Z,67.41
2018-08-17T20:02:39.886Z,67.23
2018-08-17T20:05:09.236Z,67.33
2018-08-17T20:07:39.617Z,67.18
2018-08-17T20:10:09.153Z,67.39
2018-08-17T20:12:38.698Z,67.06
2018-08-17T20:15:07.929Z,66.52
2018-08-17T20:17:36.594Z,66.18
2018-08-17T20:20:08.534Z,66.51
2018-08-17T20:22:38.973Z,67.01
2018-08-17T20:25:16.474Z,66.61
2018-08-17T20:27:50.051Z,66.95
2018-08-17T20:30:29.467Z,66.65
2018-08-17T20:32:59.314Z,66.57
2018-08-17T20:35:29.649Z,66.71
2018-08-17T20:37:58.137Z,67.09
2018-08-17T20:40:26.672Z,66.88
2018-08-17T20:42:55.898Z,66.66
2018-08-17T20:45:26.827Z,66.51
2018-08-17T20:47:55.282Z,67.09
2018-08-17T20:50:23.940Z,67.37
2018-08-17T20:52:57.535Z,67.64
2018-08-17T20:55:27.327Z,67.57
2018-08-17T20:57:58.536Z,67.35
2018-08-17T21:00:29.416Z,67.39
2018-08-17T21:02:58.804Z,67.61
2018-08-17T21:05:27.456Z,67.55
2018-08-17T21:07:57.672Z,67.29
2018-08-17T21:10:27.455Z,67.61
2018-08-17T21:12:56.357Z,67.64
2018-08-17T21:15:25.652Z,67.59
2018-08-17T21:17:53.798Z,67.45
2018-08-17T21:20:22.420Z,67.56
2018-08-17T21:22:51.146Z,67.34
2018-08-17T21:25:21.513Z,67.13
2018-08-17T21:27:49.816Z,67.45
2018-08-17T21:30:20.982Z,67.40
2018-08-17T21:32:50.164Z,67.24
2018-08-17T21:35:21.854Z,67.21
2018-08-17T21:37:51.248Z,67.29
2018-08-17T21:40:28.719Z,67.24
2018-08-17T21:42:57.758Z,67.18
2018-08-17T21:45:26.184Z,67.18
2018-08-17T21:47:55.481Z,67.20
2018-08-17T21:50:24.563Z,67.12
2018-08-17T21:52:52.971Z,67.04
2018-08-17T21:55:21.569Z,66.93
2018-08-17T21:57:49.680Z,66.92
2018-08-17T22:00:22.230Z,66.73
2018-08-17T22:02:52.237Z,66.86
2018-08-17T22:05:28.820Z,66.85
2018-08-17T22:07:59.844Z,66.93
2018-08-17T22:10:28.786Z,67.01
2018-08-17T22:12:57.619Z,66.97
2018-08-17T22:15:28.892Z,66.82
2018-08-17T22:17:57.421Z,66.60
2018-08-17T22:20:26.026Z,66.59
2018-08-17T22:22:54.870Z,66.43
2018-08-17T22:25:23.753Z,66.33
2018-08-17T22:27:53.067Z,66.15
2018-08-17T22:30:23.448Z,65.85
2018-08-17T22:32:51.978Z,65.71
2018-08-17T22:35:20.345Z,65.61
2018-08-17T22:37:50.463Z,65.69
2018-08-17T22:40:19.127Z,65.95
2018-08-17T22:42:48.070Z,66.02
2018-08-17T22:45:16.831Z,66.20
2018-08-17T22:47:45.992Z,66.29
2018-08-17T22:50:14.887Z,66.40
2018-08-17T22:52:43.303Z,66.50
2018-08-17T22:55:12.283Z,66.82
2018-08-17T22:57:40.662Z,66.95
2018-08-17T23:00:22.083Z,67.11
2018-08-17T23:02:52.696Z,67.40
2018-08-17T23:05:23.711Z,67.44
2018-08-17T23:07:51.883Z,67.40
2018-08-17T23:10:21.343Z,67.30
2018-08-17T23:12:51.229Z,67.34
2018-08-17T23:15:20.126Z,67.19
2018-08-17T23:17:53.286Z,67.24
2018-08-17T23:20:26.675Z,67.16
2018-08-17T23:22:55.851Z,67.20
2018-08-17T23:25:25.074Z,67.37
2018-08-17T23:27:53.688Z,67.69
2018-08-17T23:30:21.998Z,68.27
2018-08-17T23:32:51.794Z,68.15
2018-08-17T23:35:20.351Z,68.31
2018-08-17T23:37:49.224Z,68.42
2018-08-17T23:40:19.063Z,68.38
2018-08-17T23:42:47.481Z,68.76
2018-08-17T23:45:16.740Z,68.95
2018-08-17T23:47:45.384Z,69.23
2018-08-17T23:50:14.532Z,69.32
2018-08-17T23:52:43.080Z,69.28
2018-08-17T23:55:13.853Z,69.65
2018-08-17T23:57:42.142Z,70.06
